This is the latest recevied weather packets stored in our database for station/object DB0RSR-12. If no packets are shown the sender has not sent any weather packets the latest 10 day(s).
| Time | Temp. | Humidity | Pressure | Rain* | Wind** | Luminosity | Snow |
|---|---|---|---|---|---|---|---|
| 1777209918 | 23.33° C | 24% | 1010 hPa | - | - | - | - |
| 1777209017 | 22.22° C | 26% | 1010 hPa | - | - | - | - |
| 1777208117 | 22.78° C | 24% | 1011 hPa | - | - | - | - |
| 1777207217 | 21.67° C | 31% | 1011 hPa | - | - | - | - |
| 1777206317 | 21.67° C | 31% | 1011 hPa | - | - | - | - |
| 1777205417 | 20.56° C | 32% | 1011 hPa | - | - | - | - |
| 1777204517 | 21.11° C | 33% | 1011 hPa | - | - | - | - |
| 1777203617 | 21.11° C | 31% | 1011 hPa | - | - | - | - |
| 1777202717 | 20° C | 34% | 1011 hPa | - | - | - | - |
| 1777201816 | 22.22° C | 26% | 1011 hPa | - | - | - | - |
| 1777200916 | 20° C | 33% | 1011 hPa | - | - | - | - |
| 1777200016 | 19.44° C | 37% | 1011 hPa | - | - | - | - |
| 1777199116 | 21.11° C | 32% | 1011 hPa | - | - | - | - |
| 1777198216 | 20° C | 34% | 1011 hPa | - | - | - | - |
| 1777197316 | 19.44° C | 34% | 1011 hPa | - | - | - | - |
| 1777196416 | 18.89° C | 39% | 1011 hPa | - | - | - | - |
| 1777195516 | 19.44° C | 34% | 1011 hPa | - | - | - | - |
| 1777194616 | 17.78° C | 40% | 1011 hPa | - | - | - | - |
| 1777193716 | 16.11° C | 44% | 1011 hPa | - | - | - | - |
| 1777192816 | 16.11° C | 42% | 1011 hPa | - | - | - | - |
| 1777191916 | 15.56° C | 45% | 1011 hPa | - | - | - | - |
| 1777191016 | 12.78° C | 53% | 1011 hPa | - | - | - | - |
| 1777190116 | 11.11° C | 58% | 1011 hPa | - | - | - | - |
| 1777189216 | 10.56° C | 58% | 1011 hPa | - | - | - | - |
| 1777188315 | 9.44° C | 62% | 1010 hPa | - | - | - | - |
* Rain since midnight (hover to see other rain measurements)
** Current wind speed in m/s (hover to see current wind gust speed)